Terminal Aerodrome Forecast
Issued by NWS

Home | Current Version | Previous Version | Text Only | Print | Product List | Glossary On
Versions: 1 2 3 4 5 6 7 8 9 10 11 12 13 14 15
000
FTUS43 KMQT 200300 AAB
TAFCMX
TAF AMD
KCMX 200317Z 2003/2024 31005KT P6SM BKN035
     FM200700 27004KT P6SM BKN025
     FM200800 31007KT P6SM OVC015
     FM201300 33010KT P6SM -SHRA OVC015
     FM201700 34013KT P6SM OVC020=

USA.gov is the U.S. government's official web portal to all federal, state and local government web resources and services.